Time;durP1;ratioP1;P1;durP2;ratioP2;P2;SDS_P1;SDS_P2;PMS_P1;PMS_P2;Temp;Humidity;BMP_temperature;BMP_pressure;BME280_temperature;BME280_humidity;BME280_pressure;Samples;Min_cycle;Max_cycle;Signal;HPM_P1;HPM_P2
2021/01/02 00:01:27;;;;;;;33.60;21.73;;;2.40;99.90;;;;;;5113290;28;20212;-73
2021/01/02 00:04:17;;;;;;;31.63;20.50;;;2.40;99.90;;;;;;5109223;28;20259;-74
2021/01/02 00:06:54;;;;;;;36.87;21.90;;;2.40;99.90;;;;;;5074105;28;20193;-73
2021/01/02 00:09:23;;;;;;;31.93;20.57;;;2.30;99.90;;;;;;5112936;28;20193;-73
2021/01/02 00:12:07;;;;;;;31.43;20.83;;;2.30;99.90;;;;;;5113595;28;20197;-73
2021/01/02 00:14:52;;;;;;;35.13;20.37;;;2.30;99.90;;;;;;5113365;28;20197;-74
2021/01/02 00:17:52;;;;;;;29.27;19.80;;;2.30;99.90;;;;;;5113374;28;20197;-74
2021/01/02 00:20:41;;;;;;;29.70;20.40;;;2.30;99.90;;;;;;5113088;28;20189;-74
2021/01/02 00:23:16;;;;;;;30.40;19.93;;;2.30;99.90;;;;;;5113357;28;20205;-74
2021/01/02 00:25:49;;;;;;;30.90;21.00;;;2.30;99.90;;;;;;5113738;28;20189;-74
2021/01/02 00:28:17;;;;;;;32.70;21.67;;;2.30;99.90;;;;;;5115523;28;20197;-73
2021/01/02 00:31:07;;;;;;;32.60;20.90;;;2.30;99.90;;;;;;5117294;28;20194;-74
2021/01/02 00:33:57;;;;;;;32.90;21.03;;;2.30;99.90;;;;;;5117351;28;20196;-73
2021/01/02 00:36:32;;;;;;;34.07;20.67;;;2.40;99.90;;;;;;5113696;28;20721;-73
2021/01/02 00:38:59;;;;;;;33.27;20.77;;;2.80;99.90;;;;;;5117450;28;20246;-73
2021/01/02 00:41:27;;;;;;;33.30;22.27;;;2.40;99.90;;;;;;5116543;28;20236;-73
2021/01/02 00:43:54;;;;;;;30.20;21.07;;;2.40;99.90;;;;;;5116771;28;20536;-73
2021/01/02 00:46:20;;;;;;;33.57;20.90;;;2.40;99.90;;;;;;5116834;28;20194;-73
2021/01/02 00:48:48;;;;;;;36.00;22.77;;;2.30;99.90;;;;;;5116955;28;20193;-73
2021/01/02 00:51:16;;;;;;;31.63;22.37;;;2.40;99.90;;;;;;5116943;28;20601;-73
2021/01/02 00:54:07;;;;;;;34.77;22.03;;;2.30;99.90;;;;;;5116668;28;20227;-73
2021/01/02 00:56:34;;;;;;;36.67;21.83;;;2.20;99.90;;;;;;5116968;28;20235;-73
2021/01/02 00:59:43;;;;;;;36.77;23.10;;;2.20;99.90;;;;;;5116272;28;20658;-73
2021/01/02 01:02:48;;;;;;;35.43;22.50;;;2.10;99.90;;;;;;5116464;28;20228;-73
2021/01/02 01:05:20;;;;;;;34.67;21.73;;;2.00;99.90;;;;;;5116665;28;20203;-73
2021/01/02 01:07:52;;;;;;;35.60;22.57;;;1.90;99.90;;;;;;5116538;28;20204;-73
2021/01/02 01:10:23;;;;;;;35.73;22.60;;;1.90;99.90;;;;;;5116192;28;20193;-73
2021/01/02 01:12:59;;;;;;;39.10;23.63;;;1.80;99.90;;;;;;5116290;28;20202;-73
2021/01/02 01:15:26;;;;;;;37.87;22.93;;;1.90;99.90;;;;;;5116137;28;20223;-72
2021/01/02 01:18:39;;;;;;;39.03;24.67;;;1.70;99.90;;;;;;5116708;28;20240;-72
2021/01/02 01:21:09;;;;;;;40.40;23.60;;;1.70;99.90;;;;;;5033887;28;20259;-73
2021/01/02 01:23:55;;;;;;;41.33;24.00;;;1.60;99.90;;;;;;5033665;28;20200;-72
2021/01/02 01:26:40;;;;;;;39.30;25.00;;;1.40;99.90;;;;;;5083236;28;20197;-73
2021/01/02 01:29:16;;;;;;;44.27;25.73;;;1.50;99.90;;;;;;5114562;28;20194;-73
2021/01/02 01:31:45;;;;;;;38.13;25.17;;;1.50;99.90;;;;;;5115991;28;20208;-73
2021/01/02 01:34:20;;;;;;;44.97;26.03;;;1.50;99.90;;;;;;5115969;28;20197;-75
2021/01/02 01:36:47;;;;;;;40.70;26.20;;;1.70;99.90;;;;;;5115809;28;20696;-72
2021/01/02 01:39:13;;;;;;;41.57;25.50;;;1.60;99.90;;;;;;5115340;28;20200;-73
2021/01/02 01:41:43;;;;;;;41.33;25.67;;;1.70;99.90;;;;;;5115917;28;20244;-73
2021/01/02 01:44:42;;;;;;;40.53;24.80;;;1.70;99.90;;;;;;5115810;28;20666;-73
2021/01/02 01:47:18;;;;;;;46.40;26.53;;;1.70;99.90;;;;;;5115771;28;20203;-73
2021/01/02 01:50:14;;;;;;;39.13;24.93;;;1.60;99.90;;;;;;5115738;28;20648;-73
2021/01/02 01:53:08;;;;;;;42.67;26.53;;;1.80;99.90;;;;;;5115345;28;20197;-73
2021/01/02 01:55:48;;;;;;;42.60;24.13;;;1.80;99.90;;;;;;5115628;28;20500;-73
2021/01/02 01:58:20;;;;;;;43.97;25.20;;;1.90;99.90;;;;;;5115472;28;20288;-73
2021/01/02 02:00:49;;;;;;;38.07;23.80;;;1.80;99.90;;;;;;5115544;28;20194;-73
2021/01/02 02:03:23;;;;;;;41.50;24.77;;;1.90;99.90;;;;;;5115335;28;20560;-73
2021/01/02 02:05:52;;;;;;;35.60;23.10;;;1.90;99.90;;;;;;5115998;28;20213;-72
2021/01/02 02:08:30;;;;;;;38.60;23.27;;;2.00;99.90;;;;;;5115475;28;20221;-73
2021/01/02 02:11:04;;;;;;;41.67;23.07;;;2.00;99.90;;;;;;5115556;28;20636;-73
2021/01/02 02:13:36;;;;;;;38.43;24.00;;;2.00;99.90;;;;;;5114992;28;20192;-73
2021/01/02 02:16:10;;;;;;;39.13;23.43;;;2.00;99.90;;;;;;5115264;28;20197;-73
2021/01/02 02:18:43;;;;;;;38.00;24.17;;;1.90;99.90;;;;;;5115071;28;20194;-73
2021/01/02 02:21:11;;;;;;;36.53;21.47;;;1.90;99.90;;;;;;5114970;28;20213;-73
2021/01/02 02:23:41;;;;;;;37.77;24.00;;;1.90;99.90;;;;;;5115266;28;20200;-72
2021/01/02 02:26:18;;;;;;;37.10;23.77;;;1.90;99.90;;;;;;5115496;28;20189;-72
2021/01/02 02:29:28;;;;;;;35.83;22.57;;;2.00;99.90;;;;;;5115217;28;20563;-72
2021/01/02 02:31:56;;;;;;;35.33;22.00;;;2.00;99.90;;;;;;5066501;28;20198;-72
2021/01/02 02:34:23;;;;;;;36.00;21.63;;;2.00;99.90;;;;;;5114779;28;20189;-72
2021/01/02 02:36:49;;;;;;;36.63;22.17;;;2.10;99.90;;;;;;5114930;28;20197;-73
2021/01/02 02:39:16;;;;;;;37.57;23.47;;;2.00;99.90;;;;;;5114845;28;20200;-72
2021/01/02 02:41:47;;;;;;;33.80;23.33;;;2.00;99.90;;;;;;5114619;28;20217;-72
2021/01/02 02:44:20;;;;;;;33.73;22.37;;;2.10;99.90;;;;;;5115050;28;20186;-73
2021/01/02 02:46:47;;;;;;;38.13;23.10;;;2.10;99.90;;;;;;5115578;28;20185;-73
2021/01/02 02:49:21;;;;;;;36.67;22.67;;;2.10;99.90;;;;;;5114809;28;20190;-73
2021/01/02 02:51:50;;;;;;;35.80;23.67;;;2.10;99.90;;;;;;5114145;28;20212;-73
2021/01/02 02:54:17;;;;;;;36.13;22.97;;;2.10;99.90;;;;;;5114276;28;20202;-74
2021/01/02 02:56:43;;;;;;;35.87;22.93;;;2.00;99.90;;;;;;5114233;28;20648;-73
2021/01/02 02:59:12;;;;;;;36.90;22.33;;;2.10;99.90;;;;;;5114681;28;20192;-73
2021/01/02 03:01:39;;;;;;;36.10;23.07;;;2.00;99.90;;;;;;5114412;28;20229;-73
2021/01/02 03:04:05;;;;;;;33.20;21.87;;;2.00;99.90;;;;;;5114173;28;20194;-73
2021/01/02 03:06:32;;;;;;;36.00;22.00;;;2.10;99.90;;;;;;5114385;28;20193;-73
2021/01/02 03:08:59;;;;;;;37.80;23.20;;;2.10;99.90;;;;;;5113958;28;20247;-73
2021/01/02 03:11:26;;;;;;;38.57;23.67;;;2.10;99.90;;;;;;5114083;28;20198;-73
2021/01/02 03:13:52;;;;;;;36.77;22.83;;;2.00;99.90;;;;;;5114056;28;20199;-72
2021/01/02 03:16:19;;;;;;;35.37;22.27;;;2.00;99.90;;;;;;5114141;28;20208;-73
2021/01/02 03:18:47;;;;;;;35.43;22.77;;;2.00;99.90;;;;;;5113893;28;20200;-73
2021/01/02 03:21:13;;;;;;;37.70;23.43;;;2.00;99.90;;;;;;5113834;28;20312;-73
2021/01/02 03:23:47;;;;;;;33.97;22.13;;;2.10;99.90;;;;;;5113876;28;20197;-73
2021/01/02 03:26:14;;;;;;;39.00;23.87;;;2.00;99.90;;;;;;5114304;28;20205;-72
2021/01/02 03:28:48;;;;;;;37.10;23.23;;;1.90;99.90;;;;;;5114288;28;20283;-72
2021/01/02 03:31:14;;;;;;;34.33;20.77;;;2.00;99.90;;;;;;5113796;28;20209;-72
2021/01/02 03:33:40;;;;;;;38.03;22.40;;;2.00;99.90;;;;;;5113910;28;20194;-72
2021/01/02 03:36:08;;;;;;;36.40;23.07;;;2.00;99.90;;;;;;5113597;28;20197;-72
2021/01/02 03:38:35;;;;;;;32.87;21.10;;;2.00;99.90;;;;;;5113969;28;20202;-73
2021/01/02 03:41:01;;;;;;;33.27;21.63;;;2.10;99.90;;;;;;5113455;28;20594;-73
2021/01/02 03:43:28;;;;;;;37.93;23.43;;;2.10;99.90;;;;;;5113743;28;20205;-72
2021/01/02 03:45:55;;;;;;;33.80;20.80;;;2.10;99.90;;;;;;5113430;28;20197;-73
2021/01/02 03:48:22;;;;;;;35.93;21.53;;;2.10;99.90;;;;;;5113760;28;20574;-72
2021/01/02 03:50:48;;;;;;;35.33;21.57;;;2.10;99.90;;;;;;5113801;28;20200;-72
2021/01/02 03:53:15;;;;;;;34.93;21.63;;;2.10;99.90;;;;;;5113490;28;20208;-73
2021/01/02 03:55:41;;;;;;;31.47;20.73;;;2.10;99.90;;;;;;5113687;28;20204;-73
2021/01/02 03:58:08;;;;;;;32.13;19.77;;;2.10;99.90;;;;;;5113575;28;20315;-72
2021/01/02 04:00:34;;;;;;;39.67;23.47;;;2.10;99.90;;;;;;5113865;28;20253;-73
2021/01/02 04:03:01;;;;;;;33.20;20.43;;;2.10;99.90;;;;;;5115510;28;20323;-73
2021/01/02 04:05:27;;;;;;;33.73;19.63;;;2.10;99.90;;;;;;5117960;28;20189;-72
2021/01/02 04:07:53;;;;;;;39.37;22.07;;;2.20;99.90;;;;;;5117951;28;20193;-72
2021/01/02 04:10:21;;;;;;;34.60;21.13;;;2.10;99.90;;;;;;5117674;28;20190;-72
2021/01/02 04:12:47;;;;;;;30.83;19.17;;;2.20;99.90;;;;;;5117367;28;20660;-72
2021/01/02 04:15:13;;;;;;;35.53;21.47;;;2.20;99.90;;;;;;5117333;28;20197;-74
2021/01/02 04:17:40;;;;;;;36.07;20.27;;;2.20;99.90;;;;;;5117341;28;20204;-73
2021/01/02 04:20:07;;;;;;;38.00;21.13;;;2.20;99.90;;;;;;5118153;28;20293;-72
2021/01/02 04:22:33;;;;;;;38.23;22.30;;;2.20;99.90;;;;;;5117565;28;20224;-73
2021/01/02 04:25:00;;;;;;;36.00;20.77;;;2.20;99.90;;;;;;5117219;28;20223;-72
2021/01/02 04:27:27;;;;;;;37.20;20.93;;;2.20;99.90;;;;;;5117136;28;20201;-72
2021/01/02 04:29:54;;;;;;;37.77;22.10;;;2.10;99.90;;;;;;5117264;28;20215;-72
2021/01/02 04:32:20;;;;;;;36.37;20.70;;;2.20;99.90;;;;;;5116978;28;20664;-72
2021/01/02 04:34:47;;;;;;;38.47;21.90;;;2.20;99.90;;;;;;5117051;28;20201;-72
2021/01/02 04:37:13;;;;;;;33.27;20.07;;;2.10;99.90;;;;;;5116993;28;20675;-72
2021/01/02 04:39:40;;;;;;;33.53;21.60;;;2.20;99.90;;;;;;5116775;28;20687;-72
2021/01/02 04:42:06;;;;;;;35.70;21.03;;;2.30;99.90;;;;;;5116714;28;20302;-72
2021/01/02 04:44:35;;;;;;;33.57;20.80;;;2.20;99.90;;;;;;5117043;28;20200;-72
2021/01/02 04:47:03;;;;;;;42.50;22.97;;;2.20;99.90;;;;;;5116638;28;20559;-72
2021/01/02 04:49:29;;;;;;;38.33;21.17;;;2.20;99.90;;;;;;5117006;28;20212;-72
2021/01/02 04:52:00;;;;;;;34.83;21.63;;;2.30;99.90;;;;;;5117037;28;20197;-72
2021/01/02 04:54:27;;;;;;;37.47;21.63;;;2.20;99.90;;;;;;5116462;28;20208;-72
2021/01/02 04:56:53;;;;;;;41.30;21.17;;;2.30;99.90;;;;;;5116668;28;20200;-72
2021/01/02 04:59:24;;;;;;;38.03;21.57;;;2.40;99.90;;;;;;5117237;28;20206;-72
2021/01/02 05:01:53;;;;;;;31.50;19.40;;;2.30;99.90;;;;;;5116381;28;20221;-72
2021/01/02 05:04:19;;;;;;;35.57;21.40;;;2.40;99.90;;;;;;5116807;28;20590;-72
2021/01/02 05:06:45;;;;;;;35.27;21.03;;;2.40;99.90;;;;;;5116594;28;20193;-72
2021/01/02 05:09:12;;;;;;;34.10;21.43;;;2.40;99.90;;;;;;5116326;28;20652;-72
2021/01/02 05:11:40;;;;;;;41.00;21.90;;;2.50;99.90;;;;;;5116555;28;20273;-72
2021/01/02 05:14:07;;;;;;;37.67;22.63;;;2.50;99.90;;;;;;5115935;28;20194;-73
2021/01/02 05:16:38;;;;;;;36.10;21.00;;;2.50;99.90;;;;;;5116631;28;20190;-72
2021/01/02 05:19:08;;;;;;;37.63;21.80;;;2.50;99.90;;;;;;5116870;28;20197;-72
2021/01/02 05:21:35;;;;;;;34.17;20.67;;;2.60;99.90;;;;;;5116392;28;20231;-72
2021/01/02 05:24:12;;;;;;;34.37;21.13;;;2.60;99.90;;;;;;5116092;28;20190;-72
2021/01/02 05:26:41;;;;;;;37.07;21.03;;;2.60;99.90;;;;;;5117305;28;20186;-72
2021/01/02 05:29:18;;;;;;;34.77;20.03;;;2.60;99.90;;;;;;5116183;28;20193;-72
2021/01/02 05:31:47;;;;;;;35.57;19.37;;;2.50;99.90;;;;;;5116674;28;20201;-72
2021/01/02 05:34:15;;;;;;;32.40;19.23;;;2.60;99.90;;;;;;5116020;28;20193;-72
2021/01/02 05:36:42;;;;;;;33.10;21.10;;;2.60;99.90;;;;;;5115771;28;20552;-72
2021/01/02 05:39:11;;;;;;;34.87;20.43;;;2.60;99.90;;;;;;5115911;28;20198;-72
2021/01/02 05:41:48;;;;;;;34.93;21.73;;;2.60;99.90;;;;;;5115828;28;20229;-72
2021/01/02 05:44:15;;;;;;;37.20;21.87;;;2.70;99.90;;;;;;5116138;28;20201;-72
2021/01/02 05:46:50;;;;;;;35.07;20.60;;;2.70;99.90;;;;;;5115717;28;20197;-71
2021/01/02 05:49:37;;;;;;;31.30;19.97;;;2.60;99.90;;;;;;5115709;28;20253;-72
2021/01/02 05:52:05;;;;;;;34.93;20.13;;;3.00;99.90;;;;;;5115976;28;20202;-71
2021/01/02 05:54:34;;;;;;;38.87;21.73;;;2.60;99.90;;;;;;5115643;28;20535;-71
2021/01/02 05:57:02;;;;;;;35.20;20.97;;;2.50;99.90;;;;;;5115406;28;20583;-72
2021/01/02 05:59:30;;;;;;;37.13;21.80;;;2.60;99.90;;;;;;5115456;28;20194;-71
2021/01/02 06:01:57;;;;;;;31.70;21.10;;;2.50;99.90;;;;;;5115393;28;20222;-72
2021/01/02 06:04:23;;;;;;;37.43;21.93;;;2.50;99.90;;;;;;5115117;28;20644;-71
2021/01/02 06:07:08;;;;;;;36.37;21.20;;;2.50;99.90;;;;;;5115207;28;20678;-72
2021/01/02 06:09:35;;;;;;;42.00;22.63;;;2.50;99.90;;;;;;5115749;28;20276;-71
2021/01/02 06:12:05;;;;;;;39.20;22.57;;;2.50;99.90;;;;;;5115427;28;20208;-72
2021/01/02 06:14:34;;;;;;;41.00;22.37;;;2.50;99.90;;;;;;5115034;28;20193;-71
2021/01/02 06:17:07;;;;;;;39.27;22.03;;;2.50;99.90;;;;;;5115057;28;20212;-72
2021/01/02 06:19:34;;;;;;;38.63;22.33;;;2.50;99.90;;;;;;5115237;28;20193;-72
2021/01/02 06:22:01;;;;;;;39.40;23.10;;;2.50;99.90;;;;;;5115060;28;20228;-71
2021/01/02 06:24:28;;;;;;;36.27;22.73;;;2.40;99.90;;;;;;5114614;28;20197;-72
2021/01/02 06:26:57;;;;;;;37.70;23.33;;;2.40;99.90;;;;;;5114782;28;20193;-72
2021/01/02 06:29:24;;;;;;;34.83;22.33;;;2.30;99.90;;;;;;5115013;28;20198;-71
2021/01/02 06:31:50;;;;;;;40.73;22.63;;;2.40;99.90;;;;;;5115427;28;20292;-71
2021/01/02 06:34:16;;;;;;;38.40;22.63;;;2.40;99.90;;;;;;5114919;28;20242;-72
2021/01/02 06:36:43;;;;;;;43.70;22.80;;;2.40;99.90;;;;;;5115163;28;20250;-71
2021/01/02 06:39:20;;;;;;;39.37;23.40;;;2.40;99.90;;;;;;5115013;28;20189;-71
2021/01/02 06:41:48;;;;;;;40.53;24.00;;;2.50;99.90;;;;;;5114446;28;20229;-72
2021/01/02 06:44:38;;;;;;;45.63;23.73;;;2.50;99.90;;;;;;5115096;28;20205;-71
2021/01/02 06:47:16;;;;;;;36.63;22.80;;;2.50;99.90;;;;;;5114541;28;20190;-71
2021/01/02 06:49:43;;;;;;;35.47;22.80;;;2.50;99.90;;;;;;5114340;28;20194;-71
2021/01/02 06:52:10;;;;;;;36.37;23.10;;;2.50;99.90;;;;;;5114826;28;20255;-72
2021/01/02 06:54:39;;;;;;;35.83;22.77;;;2.50;99.90;;;;;;5114580;28;20193;-71
2021/01/02 06:57:07;;;;;;;37.60;23.67;;;2.50;99.90;;;;;;5114424;28;20193;-71
2021/01/02 06:59:33;;;;;;;40.23;23.23;;;2.50;99.90;;;;;;5114075;28;20201;-71
2021/01/02 07:01:59;;;;;;;43.73;24.80;;;2.50;99.90;;;;;;5114201;28;20369;-71
2021/01/02 07:04:38;;;;;;;42.40;23.00;;;2.50;99.90;;;;;;5114122;28;20204;-72
2021/01/02 07:07:06;;;;;;;36.67;23.10;;;2.50;99.90;;;;;;5114559;28;20609;-71
2021/01/02 07:09:33;;;;;;;40.40;24.70;;;2.50;99.90;;;;;;5114377;28;20190;-71
2021/01/02 07:12:16;;;;;;;41.50;24.30;;;2.50;99.90;;;;;;5114005;28;20201;-71
2021/01/02 07:14:43;;;;;;;39.27;23.67;;;2.50;99.90;;;;;;5114021;28;20197;-73
2021/01/02 07:17:11;;;;;;;41.50;23.90;;;2.50;99.90;;;;;;5114151;28;20201;-71
2021/01/02 07:19:46;;;;;;;41.77;26.03;;;2.50;99.90;;;;;;5114375;28;20200;-71
2021/01/02 07:22:27;;;;;;;41.07;23.57;;;2.50;99.90;;;;;;5113847;28;20213;-71
2021/01/02 07:24:57;;;;;;;35.67;23.20;;;2.50;99.90;;;;;;5114094;28;20326;-71
2021/01/02 07:27:26;;;;;;;42.87;24.20;;;2.50;99.90;;;;;;5113821;28;20632;-71
2021/01/02 07:29:53;;;;;;;43.00;25.17;;;2.50;99.90;;;;;;5113979;28;20198;-72
2021/01/02 07:32:21;;;;;;;43.13;24.50;;;2.50;99.90;;;;;;5113757;28;20193;-71
2021/01/02 07:34:49;;;;;;;43.13;24.70;;;2.60;99.90;;;;;;5113983;28;20728;-71
2021/01/02 07:37:17;;;;;;;41.40;24.27;;;2.60;99.90;;;;;;5113597;28;20604;-71
2021/01/02 07:39:54;;;;;;;39.60;24.10;;;2.60;99.90;;;;;;5096639;28;20712;-74
2021/01/02 07:42:22;;;;;;;44.40;24.40;;;2.60;99.90;;;;;;5106732;28;20236;-76
2021/01/02 07:44:55;;;;;;;41.93;24.30;;;2.60;99.90;;;;;;5108099;28;20220;-75
2021/01/02 07:47:22;;;;;;;38.03;24.50;;;2.60;99.90;;;;;;5107910;28;20205;-75
2021/01/02 07:49:49;;;;;;;40.87;24.93;;;2.50;99.90;;;;;;5107674;28;20253;-75
2021/01/02 07:52:15;;;;;;;42.93;25.10;;;2.60;99.90;;;;;;5107754;28;20679;-74
2021/01/02 07:54:41;;;;;;;42.90;24.03;;;2.60;99.90;;;;;;5108128;28;20197;-74
2021/01/02 07:57:09;;;;;;;42.47;25.10;;;2.50;99.90;;;;;;5107641;28;20300;-74
2021/01/02 07:59:38;;;;;;;43.70;25.90;;;2.60;99.90;;;;;;5109195;28;20205;-73
2021/01/02 08:02:06;;;;;;;42.77;25.27;;;2.60;99.90;;;;;;5111665;28;20256;-75
2021/01/02 08:04:34;;;;;;;43.07;24.97;;;2.60;99.90;;;;;;5112788;28;20193;-75
2021/01/02 08:07:01;;;;;;;38.70;23.57;;;2.70;99.90;;;;;;5112402;28;20205;-73
2021/01/02 08:09:29;;;;;;;42.57;24.23;;;2.70;99.90;;;;;;5113403;28;20189;-73
2021/01/02 08:12:01;;;;;;;40.07;24.90;;;2.70;99.90;;;;;;5113789;28;20200;-74
2021/01/02 08:14:30;;;;;;;39.13;24.27;;;2.80;99.90;;;;;;5113382;28;20721;-76
2021/01/02 08:17:08;;;;;;;44.97;24.03;;;2.80;99.90;;;;;;5113071;28;20198;-73
2021/01/02 08:19:37;;;;;;;40.33;24.13;;;2.80;99.90;;;;;;5113326;28;20189;-73
2021/01/02 08:22:06;;;;;;;39.13;23.47;;;3.00;99.90;;;;;;5113339;28;20221;-73
2021/01/02 08:24:32;;;;;;;41.33;25.20;;;2.90;99.90;;;;;;5113414;28;20193;-73
2021/01/02 08:27:01;;;;;;;41.87;25.03;;;3.00;99.90;;;;;;5112384;28;20547;-73
2021/01/02 08:29:28;;;;;;;40.27;23.67;;;3.00;99.90;;;;;;5113162;28;20193;-74
2021/01/02 08:32:04;;;;;;;38.63;24.13;;;2.90;99.90;;;;;;5113452;28;20675;-73
2021/01/02 08:34:34;;;;;;;39.00;23.80;;;3.10;99.90;;;;;;5113698;28;20189;-73
2021/01/02 08:37:06;;;;;;;39.93;23.73;;;3.10;99.90;;;;;;5113606;28;20235;-73
2021/01/02 08:39:33;;;;;;;39.13;24.67;;;3.10;99.90;;;;;;5113278;28;20219;-73
2021/01/02 08:42:00;;;;;;;39.30;24.67;;;3.10;99.90;;;;;;5113475;28;20622;-73
2021/01/02 08:44:32;;;;;;;36.63;23.53;;;3.20;99.90;;;;;;5112989;28;20537;-74
2021/01/02 08:46:59;;;;;;;40.33;24.27;;;3.10;99.90;;;;;;5112248;28;20192;-74
2021/01/02 08:49:40;;;;;;;41.60;23.60;;;3.20;99.90;;;;;;5115508;28;20648;-74
2021/01/02 08:52:17;;;;;;;38.07;23.30;;;3.10;99.90;;;;;;5116962;28;20197;-73
2021/01/02 08:54:44;;;;;;;41.97;24.73;;;3.10;99.90;;;;;;5116711;28;20198;-74
2021/01/02 08:57:33;;;;;;;39.13;25.47;;;3.10;99.90;;;;;;5116707;28;20693;-73
2021/01/02 09:00:13;;;;;;;39.33;22.93;;;3.10;99.90;;;;;;5116689;28;20194;-74
2021/01/02 09:02:41;;;;;;;39.57;25.07;;;3.00;99.90;;;;;;5116647;28;20209;-73
2021/01/02 09:05:10;;;;;;;38.83;23.43;;;3.10;99.90;;;;;;5116806;28;20234;-73
2021/01/02 09:07:38;;;;;;;39.50;25.40;;;3.10;99.90;;;;;;5116410;28;20533;-74
2021/01/02 09:10:20;;;;;;;39.43;25.40;;;3.00;99.90;;;;;;5116866;28;20234;-74
2021/01/02 09:13:05;;;;;;;43.13;24.70;;;3.00;99.90;;;;;;5116843;28;20189;-73
2021/01/02 09:15:45;;;;;;;42.43;24.90;;;3.20;99.90;;;;;;5114757;28;20265;-74
2021/01/02 09:18:12;;;;;;;39.80;24.60;;;3.40;99.90;;;;;;5116719;28;20204;-73
2021/01/02 09:20:39;;;;;;;39.40;24.10;;;3.50;99.90;;;;;;5116290;28;20640;-73
2021/01/02 09:23:08;;;;;;;39.10;25.17;;;3.60;99.90;;;;;;5115635;28;20717;-73
2021/01/02 09:25:35;;;;;;;35.60;23.93;;;3.70;99.90;;;;;;5116500;28;20551;-74
2021/01/02 09:28:12;;;;;;;44.93;26.07;;;3.70;99.90;;;;;;5116154;28;20200;-74
2021/01/02 09:30:38;;;;;;;38.67;24.07;;;3.60;99.90;;;;;;5116076;28;20662;-73
2021/01/02 09:33:05;;;;;;;38.13;24.03;;;3.80;99.90;;;;;;5115834;28;20204;-73
2021/01/02 09:35:31;;;;;;;35.20;23.10;;;3.80;99.90;;;;;;5115997;28;20636;-73
2021/01/02 09:37:59;;;;;;;39.77;23.83;;;3.80;99.90;;;;;;5116052;28;20281;-73
2021/01/02 09:40:26;;;;;;;36.17;23.10;;;4.00;99.90;;;;;;5116372;28;20201;-73
2021/01/02 09:42:53;;;;;;;43.73;25.37;;;3.80;99.90;;;;;;5115873;28;20290;-73
2021/01/02 09:45:19;;;;;;;42.17;24.40;;;3.80;99.90;;;;;;5115568;28;20197;-74
2021/01/02 09:47:45;;;;;;;41.63;24.00;;;3.80;99.90;;;;;;5101946;28;20204;-77
2021/01/02 09:50:12;;;;;;;38.87;22.20;;;3.80;99.90;;;;;;5109060;28;20274;-74
2021/01/02 09:52:39;;;;;;;38.10;23.17;;;3.80;99.90;;;;;;5109913;28;20217;-73
2021/01/02 09:55:06;;;;;;;42.40;23.37;;;3.90;99.90;;;;;;5107487;28;20209;-78
2021/01/02 09:57:34;;;;;;;37.43;22.80;;;3.90;99.90;;;;;;5100055;28;20201;-73
2021/01/02 10:00:00;;;;;;;39.13;23.77;;;4.00;99.90;;;;;;5109232;28;20241;-73
2021/01/02 10:02:29;;;;;;;37.03;23.27;;;4.10;99.90;;;;;;5109253;28;20221;-74
2021/01/02 10:04:56;;;;;;;33.73;22.47;;;4.30;99.90;;;;;;5109267;28;20209;-74
2021/01/02 10:07:22;;;;;;;35.17;22.50;;;4.30;99.90;;;;;;5108701;28;20209;-74
2021/01/02 10:09:48;;;;;;;34.27;22.33;;;4.50;99.90;;;;;;5109176;28;20200;-75
2021/01/02 10:12:16;;;;;;;36.77;22.23;;;4.40;99.90;;;;;;5108958;28;20342;-73
2021/01/02 10:14:44;;;;;;;39.10;23.57;;;4.40;99.90;;;;;;5109649;28;20213;-74
2021/01/02 10:17:12;;;;;;;34.30;22.67;;;4.50;99.90;;;;;;5109266;28;20278;-76
2021/01/02 10:19:42;;;;;;;33.63;21.80;;;4.60;99.90;;;;;;5109256;28;20215;-76
2021/01/02 10:22:08;;;;;;;29.50;21.73;;;4.50;99.90;;;;;;5109123;28;20587;-75
2021/01/02 10:24:35;;;;;;;34.33;21.63;;;4.50;99.90;;;;;;5108757;28;20205;-74
2021/01/02 10:27:02;;;;;;;34.73;22.43;;;4.40;99.90;;;;;;5109431;28;20213;-73
2021/01/02 10:29:28;;;;;;;36.53;22.00;;;4.40;99.90;;;;;;5108674;28;20736;-74
2021/01/02 10:31:59;;;;;;;33.57;21.57;;;4.30;99.90;;;;;;5108413;28;20650;-74
2021/01/02 10:34:25;;;;;;;35.17;21.80;;;4.40;99.90;;;;;;5108646;28;20209;-74
2021/01/02 10:36:52;;;;;;;35.13;22.33;;;4.40;99.90;;;;;;5109009;28;20206;-75
2021/01/02 10:39:18;;;;;;;34.13;21.53;;;4.50;99.90;;;;;;5109546;28;20204;-73
2021/01/02 10:41:46;;;;;;;34.50;22.50;;;4.60;99.90;;;;;;5108007;28;20209;-75
2021/01/02 10:44:12;;;;;;;35.03;23.00;;;4.60;99.90;;;;;;5107731;28;20190;-76
2021/01/02 10:46:44;;;;;;;32.47;21.37;;;4.60;99.90;;;;;;5108934;28;20209;-73
2021/01/02 10:49:11;;;;;;;34.47;21.13;;;4.70;99.90;;;;;;5107958;28;20579;-73
2021/01/02 10:51:39;;;;;;;32.23;21.07;;;4.80;99.90;;;;;;5100668;28;20209;-73
2021/01/02 10:54:05;;;;;;;34.93;21.77;;;4.90;99.90;;;;;;5108624;28;20201;-74
2021/01/02 10:56:32;;;;;;;27.93;20.33;;;5.00;99.90;;;;;;5108823;28;20209;-72
2021/01/02 10:58:59;;;;;;;29.67;19.93;;;5.10;99.90;;;;;;5108199;28;20568;-73
2021/01/02 11:01:26;;;;;;;31.37;19.93;;;4.90;99.90;;;;;;5108680;28;20213;-75
2021/01/02 11:03:52;;;;;;;34.93;21.90;;;5.10;99.90;;;;;;5107095;28;20226;-73
2021/01/02 11:06:20;;;;;;;34.87;21.93;;;5.20;99.90;;;;;;5109083;28;20205;-72
2021/01/02 11:08:47;;;;;;;31.37;20.50;;;5.30;99.90;;;;;;5111031;28;20246;-73
2021/01/02 11:11:19;;;;;;;34.87;20.03;;;5.10;99.90;;;;;;5108569;28;20278;-74
2021/01/02 11:13:45;;;;;;;28.47;20.00;;;5.10;99.90;;;;;;5109959;28;20217;-75
2021/01/02 11:16:11;;;;;;;31.40;20.70;;;5.10;99.90;;;;;;5109078;28;20227;-74
2021/01/02 11:18:38;;;;;;;33.13;19.83;;;5.00;99.90;;;;;;5111724;28;20209;-73
2021/01/02 11:21:08;;;;;;;30.30;20.00;;;5.00;99.90;;;;;;5111988;28;20284;-77
2021/01/02 11:23:35;;;;;;;29.00;19.80;;;5.00;99.90;;;;;;5112415;28;20638;-74
2021/01/02 11:26:02;;;;;;;29.40;19.80;;;5.00;99.90;;;;;;5113540;28;20652;-74
2021/01/02 11:28:28;;;;;;;33.03;21.60;;;5.00;99.90;;;;;;5114181;28;20525;-74
2021/01/02 11:30:55;;;;;;;30.27;19.80;;;5.00;99.90;;;;;;5114005;28;20208;-74
2021/01/02 11:33:21;;;;;;;30.80;20.00;;;4.90;99.90;;;;;;5113854;28;20232;-74
2021/01/02 11:35:48;;;;;;;30.43;20.50;;;4.90;99.90;;;;;;5114803;28;20193;-74
2021/01/02 11:38:14;;;;;;;32.90;20.60;;;4.90;99.90;;;;;;5113692;28;20222;-74
2021/01/02 11:40:41;;;;;;;30.70;19.53;;;5.00;99.90;;;;;;5113754;28;20246;-74
2021/01/02 11:43:08;;;;;;;30.47;20.13;;;5.00;99.90;;;;;;5113587;28;20746;-74
2021/01/02 11:45:34;;;;;;;33.33;20.30;;;5.40;99.90;;;;;;5112743;28;20284;-74
2021/01/02 11:48:00;;;;;;;35.33;21.80;;;5.10;99.90;;;;;;5113420;28;20262;-73
2021/01/02 11:50:27;;;;;;;34.40;21.47;;;5.10;99.90;;;;;;5113796;28;20242;-74
2021/01/02 11:52:53;;;;;;;30.83;21.03;;;5.30;99.90;;;;;;5113414;28;20194;-74
2021/01/02 11:55:19;;;;;;;32.43;19.53;;;5.20;99.90;;;;;;5113626;28;20201;-73
2021/01/02 11:57:47;;;;;;;31.53;20.40;;;5.20;99.90;;;;;;5113408;28;20640;-73
2021/01/02 12:00:14;;;;;;;31.63;21.13;;;5.20;99.90;;;;;;5113062;28;20674;-73
2021/01/02 12:02:41;;;;;;;38.07;22.50;;;5.30;99.90;;;;;;5113287;28;20579;-73
2021/01/02 12:05:09;;;;;;;34.47;21.10;;;5.30;99.90;;;;;;5112961;28;20663;-72
2021/01/02 12:07:36;;;;;;;32.83;20.90;;;5.20;99.90;;;;;;5113457;28;20197;-72
2021/01/02 12:10:04;;;;;;;30.80;20.70;;;5.20;99.90;;;;;;5113048;28;20234;-73
2021/01/02 12:12:31;;;;;;;30.03;19.90;;;5.20;99.90;;;;;;5110444;28;20196;-78
2021/01/02 12:14:58;;;;;;;31.70;20.80;;;5.30;99.90;;;;;;5100850;28;20210;-73
2021/01/02 12:17:25;;;;;;;33.50;21.30;;;5.30;99.90;;;;;;5107971;28;20262;-73
2021/01/02 12:19:53;;;;;;;33.10;20.87;;;5.30;99.90;;;;;;5107017;28;20300;-74
2021/01/02 12:22:21;;;;;;;36.57;22.47;;;5.20;99.90;;;;;;5108482;28;20555;-73
2021/01/02 12:24:48;;;;;;;36.43;22.53;;;5.30;99.90;;;;;;5111629;28;20213;-73
2021/01/02 12:27:14;;;;;;;38.00;22.43;;;5.30;99.90;;;;;;5112567;28;20342;-73
2021/01/02 12:29:43;;;;;;;34.03;21.93;;;5.40;99.90;;;;;;5112589;28;20201;-73
2021/01/02 12:32:11;;;;;;;39.00;23.60;;;5.60;99.90;;;;;;5113603;28;20217;-73
2021/01/02 12:34:40;;;;;;;36.57;22.63;;;5.50;99.90;;;;;;5113889;28;20296;-73
2021/01/02 12:37:09;;;;;;;33.13;22.33;;;5.50;99.90;;;;;;5114829;28;20284;-73
2021/01/02 12:39:36;;;;;;;38.43;23.60;;;5.50;99.90;;;;;;5115259;28;20197;-74
2021/01/02 12:42:04;;;;;;;38.07;23.77;;;5.50;99.90;;;;;;5115805;28;20225;-74
2021/01/02 12:44:30;;;;;;;41.37;26.57;;;5.50;99.90;;;;;;5115622;28;20198;-73
2021/01/02 12:46:59;;;;;;;40.90;26.10;;;5.50;99.90;;;;;;5116819;28;20193;-73
2021/01/02 12:49:29;;;;;;;40.80;23.97;;;5.50;99.90;;;;;;5116938;28;20197;-73
2021/01/02 12:51:58;;;;;;;36.80;22.77;;;5.50;99.90;;;;;;5116772;28;20200;-72